Qinhuangdao, China
Current Conditions -  °F | °C
As of 10:30 PM on Saturday 25 Oct 2014 (Local Time) from ZYTL Reporting Station
Clear Clear  
Wind Chill: 66°   Ceiling: Unl
Heat Index: 66°   Visibility: 5mi
Dew Point: 52°   Wind: 11mph
Humidity: 60%   Direction: 210°SSW
Pressure: 29.91"   Gusts: NA
Location:  39.95°N, 119.59°E
Report Text: ZYTL 251430Z 21005MPS 170V250 8000 NSC 19/11 Q1013 NOSIG
Loading
Personal Weather Stations






























Interactive Weather Map
Tropical Storm Tracking
New forecast layout! Learn more

10-Day Weather Forecast

Advertisements
Track Severe Weather on mobile